sensor_id;sensor_type;location;lat;lon;timestamp;temperature;humidity
70336;SHT31;57756;47.408;18.940;2022-07-22T00:02:05;24.13;49.71
70336;SHT31;57756;47.408;18.940;2022-07-22T00:04:31;24.09;49.06
70336;SHT31;57756;47.408;18.940;2022-07-22T00:06:56;24.07;48.79
70336;SHT31;57756;47.408;18.940;2022-07-22T00:09:22;24.04;49.33
70336;SHT31;57756;47.408;18.940;2022-07-22T00:11:48;24.00;49.40
70336;SHT31;57756;47.408;18.940;2022-07-22T00:14:13;23.97;47.98
70336;SHT31;57756;47.408;18.940;2022-07-22T00:16:39;23.90;47.83
70336;SHT31;57756;47.408;18.940;2022-07-22T00:19:05;23.89;48.54
70336;SHT31;57756;47.408;18.940;2022-07-22T00:21:30;23.87;48.19
70336;SHT31;57756;47.408;18.940;2022-07-22T00:23:56;23.83;49.06
70336;SHT31;57756;47.408;18.940;2022-07-22T00:26:22;23.80;49.45
70336;SHT31;57756;47.408;18.940;2022-07-22T00:28:48;23.73;48.37
70336;SHT31;57756;47.408;18.940;2022-07-22T00:31:13;23.69;48.27
70336;SHT31;57756;47.408;18.940;2022-07-22T00:33:39;23.69;47.96
70336;SHT31;57756;47.408;18.940;2022-07-22T00:36:05;23.65;48.63
70336;SHT31;57756;47.408;18.940;2022-07-22T00:38:31;23.61;47.81
70336;SHT31;57756;47.408;18.940;2022-07-22T00:40:57;23.58;48.49
70336;SHT31;57756;47.408;18.940;2022-07-22T00:43:22;23.52;48.25
70336;SHT31;57756;47.408;18.940;2022-07-22T00:45:48;23.51;47.76
70336;SHT31;57756;47.408;18.940;2022-07-22T00:48:14;23.45;47.15
70336;SHT31;57756;47.408;18.940;2022-07-22T00:50:39;23.48;46.07
70336;SHT31;57756;47.408;18.940;2022-07-22T00:53:05;23.45;47.08
70336;SHT31;57756;47.408;18.940;2022-07-22T00:55:33;23.48;47.07
70336;SHT31;57756;47.408;18.940;2022-07-22T00:57:59;23.55;44.58
70336;SHT31;57756;47.408;18.940;2022-07-22T01:00:24;23.56;44.09
70336;SHT31;57756;47.408;18.940;2022-07-22T01:02:50;23.54;46.70
70336;SHT31;57756;47.408;18.940;2022-07-22T01:05:16;23.49;46.54
70336;SHT31;57756;47.408;18.940;2022-07-22T01:07:43;23.46;47.32
70336;SHT31;57756;47.408;18.940;2022-07-22T01:10:09;23.41;47.65
70336;SHT31;57756;47.408;18.940;2022-07-22T01:12:34;23.38;47.06
70336;SHT31;57756;47.408;18.940;2022-07-22T01:15:00;23.27;47.55
70336;SHT31;57756;47.408;18.940;2022-07-22T01:17:26;23.21;47.85
70336;SHT31;57756;47.408;18.940;2022-07-22T01:19:52;23.19;48.57
70336;SHT31;57756;47.408;18.940;2022-07-22T01:22:17;23.17;49.13
70336;SHT31;57756;47.408;18.940;2022-07-22T01:24:43;23.14;49.76
70336;SHT31;57756;47.408;18.940;2022-07-22T01:27:09;23.04;50.80
70336;SHT31;57756;47.408;18.940;2022-07-22T01:29:34;23.01;50.20
70336;SHT31;57756;47.408;18.940;2022-07-22T01:32:00;22.94;49.53
70336;SHT31;57756;47.408;18.940;2022-07-22T01:34:25;22.86;49.29
70336;SHT31;57756;47.408;18.940;2022-07-22T01:36:51;22.83;50.50
70336;SHT31;57756;47.408;18.940;2022-07-22T01:39:16;22.79;51.73
70336;SHT31;57756;47.408;18.940;2022-07-22T01:41:42;22.73;50.81
70336;SHT31;57756;47.408;18.940;2022-07-22T01:44:08;22.70;51.34
70336;SHT31;57756;47.408;18.940;2022-07-22T01:46:34;22.67;51.78
70336;SHT31;57756;47.408;18.940;2022-07-22T01:49:00;22.66;51.78
70336;SHT31;57756;47.408;18.940;2022-07-22T01:51:25;22.64;51.24
70336;SHT31;57756;47.408;18.940;2022-07-22T01:53:51;22.62;51.58
70336;SHT31;57756;47.408;18.940;2022-07-22T01:56:17;22.55;51.84
70336;SHT31;57756;47.408;18.940;2022-07-22T01:58:42;22.46;52.45
70336;SHT31;57756;47.408;18.940;2022-07-22T02:01:08;22.43;52.49
70336;SHT31;57756;47.408;18.940;2022-07-22T02:03:34;22.39;52.06
70336;SHT31;57756;47.408;18.940;2022-07-22T02:06:00;22.33;51.22
70336;SHT31;57756;47.408;18.940;2022-07-22T02:08:25;22.26;51.16
70336;SHT31;57756;47.408;18.940;2022-07-22T02:10:51;22.25;50.54
70336;SHT31;57756;47.408;18.940;2022-07-22T02:13:16;22.23;50.71
70336;SHT31;57756;47.408;18.940;2022-07-22T02:15:42;22.11;55.04
70336;SHT31;57756;47.408;18.940;2022-07-22T02:18:16;21.97;55.37
70336;SHT31;57756;47.408;18.940;2022-07-22T02:20:44;21.84;55.56
70336;SHT31;57756;47.408;18.940;2022-07-22T02:23:10;21.84;54.49
70336;SHT31;57756;47.408;18.940;2022-07-22T02:25:39;21.80;54.68
70336;SHT31;57756;47.408;18.940;2022-07-22T02:28:05;21.76;54.90
70336;SHT31;57756;47.408;18.940;2022-07-22T02:30:31;21.73;54.84
70336;SHT31;57756;47.408;18.940;2022-07-22T02:32:58;21.74;54.40
70336;SHT31;57756;47.408;18.940;2022-07-22T02:35:24;21.74;55.15
70336;SHT31;57756;47.408;18.940;2022-07-22T02:37:50;21.67;55.42
70336;SHT31;57756;47.408;18.940;2022-07-22T02:40:16;21.66;54.01
70336;SHT31;57756;47.408;18.940;2022-07-22T02:42:42;21.68;52.90
70336;SHT31;57756;47.408;18.940;2022-07-22T02:45:07;21.64;53.76
70336;SHT31;57756;47.408;18.940;2022-07-22T02:47:33;21.56;54.36
70336;SHT31;57756;47.408;18.940;2022-07-22T02:49:59;21.53;54.71
70336;SHT31;57756;47.408;18.940;2022-07-22T02:52:25;21.58;55.67
70336;SHT31;57756;47.408;18.940;2022-07-22T02:54:50;21.58;54.06
70336;SHT31;57756;47.408;18.940;2022-07-22T02:57:16;21.58;54.06
70336;SHT31;57756;47.408;18.940;2022-07-22T02:59:41;21.50;53.93
70336;SHT31;57756;47.408;18.940;2022-07-22T03:02:07;21.49;53.54
70336;SHT31;57756;47.408;18.940;2022-07-22T03:04:33;21.53;54.28
70336;SHT31;57756;47.408;18.940;2022-07-22T03:06:58;21.54;53.01
70336;SHT31;57756;47.408;18.940;2022-07-22T03:09:24;21.47;52.50
70336;SHT31;57756;47.408;18.940;2022-07-22T03:11:49;21.43;54.28
70336;SHT31;57756;47.408;18.940;2022-07-22T03:14:15;21.45;54.27
70336;SHT31;57756;47.408;18.940;2022-07-22T03:16:41;21.40;54.46
70336;SHT31;57756;47.408;18.940;2022-07-22T03:19:07;21.37;55.19
70336;SHT31;57756;47.408;18.940;2022-07-22T03:21:32;21.37;55.46
70336;SHT31;57756;47.408;18.940;2022-07-22T03:23:58;21.33;55.34
70336;SHT31;57756;47.408;18.940;2022-07-22T03:26:24;21.30;54.74
70336;SHT31;57756;47.408;18.940;2022-07-22T03:28:50;21.29;54.45
70336;SHT31;57756;47.408;18.940;2022-07-22T03:31:17;21.29;56.09
70336;SHT31;57756;47.408;18.940;2022-07-22T03:33:42;21.32;58.48
70336;SHT31;57756;47.408;18.940;2022-07-22T03:36:08;21.33;58.71
70336;SHT31;57756;47.408;18.940;2022-07-22T03:38:35;21.35;59.31
70336;SHT31;57756;47.408;18.940;2022-07-22T03:41:01;21.33;59.08
70336;SHT31;57756;47.408;18.940;2022-07-22T03:43:27;21.35;60.08
70336;SHT31;57756;47.408;18.940;2022-07-22T03:45:52;21.37;58.86
70336;SHT31;57756;47.408;18.940;2022-07-22T03:48:18;21.37;56.46
70336;SHT31;57756;47.408;18.940;2022-07-22T03:50:45;21.39;56.56
70336;SHT31;57756;47.408;18.940;2022-07-22T03:53:11;21.42;59.09
70336;SHT31;57756;47.408;18.940;2022-07-22T03:55:37;21.45;58.62
70336;SHT31;57756;47.408;18.940;2022-07-22T03:58:02;21.49;59.09
70336;SHT31;57756;47.408;18.940;2022-07-22T04:00:28;21.58;61.50
70336;SHT31;57756;47.408;18.940;2022-07-22T04:02:53;21.64;60.05
70336;SHT31;57756;47.408;18.940;2022-07-22T04:05:19;21.70;58.54
70336;SHT31;57756;47.408;18.940;2022-07-22T04:07:44;21.77;62.03
70336;SHT31;57756;47.408;18.940;2022-07-22T04:10:10;21.83;58.48
70336;SHT31;57756;47.408;18.940;2022-07-22T04:12:38;21.84;61.41
70336;SHT31;57756;47.408;18.940;2022-07-22T04:15:05;21.94;63.04
70336;SHT31;57756;47.408;18.940;2022-07-22T04:17:32;22.06;62.22
70336;SHT31;57756;47.408;18.940;2022-07-22T04:19:57;22.15;61.25
70336;SHT31;57756;47.408;18.940;2022-07-22T04:22:24;22.25;61.34
70336;SHT31;57756;47.408;18.940;2022-07-22T04:24:50;22.35;62.46
70336;SHT31;57756;47.408;18.940;2022-07-22T04:27:15;22.46;59.96
70336;SHT31;57756;47.408;18.940;2022-07-22T04:29:41;22.57;58.54
70336;SHT31;57756;47.408;18.940;2022-07-22T04:32:06;22.71;58.97
70336;SHT31;57756;47.408;18.940;2022-07-22T04:34:32;22.90;62.57
70336;SHT31;57756;47.408;18.940;2022-07-22T04:36:57;23.04;61.03
70336;SHT31;57756;47.408;18.940;2022-07-22T04:39:23;23.15;59.26
70336;SHT31;57756;47.408;18.940;2022-07-22T04:41:48;23.29;63.14
70336;SHT31;57756;47.408;18.940;2022-07-22T04:44:14;23.46;62.30
70336;SHT31;57756;47.408;18.940;2022-07-22T04:46:39;23.63;59.13
70336;SHT31;57756;47.408;18.940;2022-07-22T04:49:05;23.77;59.61
70336;SHT31;57756;47.408;18.940;2022-07-22T04:51:30;23.96;60.02
70336;SHT31;57756;47.408;18.940;2022-07-22T04:53:56;24.13;57.80
70336;SHT31;57756;47.408;18.940;2022-07-22T04:56:21;24.35;56.72
70336;SHT31;57756;47.408;18.940;2022-07-22T04:58:48;24.57;56.10
70336;SHT31;57756;47.408;18.940;2022-07-22T05:01:14;24.79;56.60
70336;SHT31;57756;47.408;18.940;2022-07-22T05:03:40;25.09;58.18
70336;SHT31;57756;47.408;18.940;2022-07-22T05:06:06;25.34;61.05
70336;SHT31;57756;47.408;18.940;2022-07-22T05:08:32;25.67;54.11
70336;SHT31;57756;47.408;18.940;2022-07-22T05:10:57;25.96;51.78
70336;SHT31;57756;47.408;18.940;2022-07-22T05:13:23;26.27;52.04
70336;SHT31;57756;47.408;18.940;2022-07-22T05:15:48;26.68;54.66
70336;SHT31;57756;47.408;18.940;2022-07-22T05:18:14;27.06;40.20
70336;SHT31;57756;47.408;18.940;2022-07-22T05:20:40;27.56;45.82
70336;SHT31;57756;47.408;18.940;2022-07-22T05:23:05;27.50;44.28
70336;SHT31;57756;47.408;18.940;2022-07-22T05:25:31;27.53;42.61
70336;SHT31;57756;47.408;18.940;2022-07-22T05:27:56;28.02;45.96
70336;SHT31;57756;47.408;18.940;2022-07-22T05:30:22;28.53;36.90
70336;SHT31;57756;47.408;18.940;2022-07-22T05:32:48;28.89;38.24
70336;SHT31;57756;47.408;18.940;2022-07-22T05:35:14;28.99;33.59
70336;SHT31;57756;47.408;18.940;2022-07-22T05:37:39;29.28;37.95
70336;SHT31;57756;47.408;18.940;2022-07-22T05:40:05;29.18;39.39
70336;SHT31;57756;47.408;18.940;2022-07-22T05:42:33;29.28;34.53
70336;SHT31;57756;47.408;18.940;2022-07-22T05:44:59;29.47;36.10
70336;SHT31;57756;47.408;18.940;2022-07-22T05:47:25;29.45;38.32
70336;SHT31;57756;47.408;18.940;2022-07-22T05:49:50;29.66;36.89
70336;SHT31;57756;47.408;18.940;2022-07-22T05:52:16;29.73;38.18
70336;SHT31;57756;47.408;18.940;2022-07-22T05:54:42;30.18;36.87
70336;SHT31;57756;47.408;18.940;2022-07-22T05:57:08;30.58;32.73
70336;SHT31;57756;47.408;18.940;2022-07-22T05:59:35;30.93;35.73
70336;SHT31;57756;47.408;18.940;2022-07-22T06:02:01;31.04;33.01
70336;SHT31;57756;47.408;18.940;2022-07-22T06:04:26;31.10;33.84
70336;SHT31;57756;47.408;18.940;2022-07-22T06:06:52;31.10;31.46
70336;SHT31;57756;47.408;18.940;2022-07-22T06:09:17;31.27;32.06
70336;SHT31;57756;47.408;18.940;2022-07-22T06:11:43;31.48;31.28
70336;SHT31;57756;47.408;18.940;2022-07-22T06:14:08;31.58;31.97
70336;SHT31;57756;47.408;18.940;2022-07-22T06:16:34;31.44;34.32
70336;SHT31;57756;47.408;18.940;2022-07-22T06:19:01;31.60;33.67
70336;SHT31;57756;47.408;18.940;2022-07-22T06:21:26;31.57;34.62
70336;SHT31;57756;47.408;18.940;2022-07-22T06:23:52;31.85;35.07
70336;SHT31;57756;47.408;18.940;2022-07-22T06:26:18;32.15;32.34
70336;SHT31;57756;47.408;18.940;2022-07-22T06:28:43;32.46;32.51
70336;SHT31;57756;47.408;18.940;2022-07-22T06:31:09;32.88;31.20
70336;SHT31;57756;47.408;18.940;2022-07-22T06:33:34;33.04;31.10
70336;SHT31;57756;47.408;18.940;2022-07-22T06:36:00;32.88;29.45
70336;SHT31;57756;47.408;18.940;2022-07-22T06:38:25;32.60;30.36
70336;SHT31;57756;47.408;18.940;2022-07-22T06:40:51;32.59;30.61
70336;SHT31;57756;47.408;18.940;2022-07-22T06:43:16;32.28;32.27
70336;SHT31;57756;47.408;18.940;2022-07-22T06:45:42;32.69;30.50
70336;SHT31;57756;47.408;18.940;2022-07-22T06:48:07;33.15;29.96
70336;SHT31;57756;47.408;18.940;2022-07-22T06:50:33;33.46;29.73
70336;SHT31;57756;47.408;18.940;2022-07-22T06:52:58;33.39;29.54
70336;SHT31;57756;47.408;18.940;2022-07-22T06:55:24;33.59;29.23
70336;SHT31;57756;47.408;18.940;2022-07-22T06:57:50;33.92;30.32
70336;SHT31;57756;47.408;18.940;2022-07-22T07:00:15;34.17;28.79
70336;SHT31;57756;47.408;18.940;2022-07-22T07:02:41;34.00;29.29
70336;SHT31;57756;47.408;18.940;2022-07-22T07:05:07;33.66;29.54
70336;SHT31;57756;47.408;18.940;2022-07-22T07:07:32;34.33;26.93
70336;SHT31;57756;47.408;18.940;2022-07-22T07:09:58;34.37;27.46
70336;SHT31;57756;47.408;18.940;2022-07-22T07:12:23;34.48;29.04
70336;SHT31;57756;47.408;18.940;2022-07-22T07:14:49;34.34;28.27
70336;SHT31;57756;47.408;18.940;2022-07-22T07:17:15;34.56;27.58
70336;SHT31;57756;47.408;18.940;2022-07-22T07:19:41;35.30;28.49
70336;SHT31;57756;47.408;18.940;2022-07-22T07:22:06;35.47;27.61
70336;SHT31;57756;47.408;18.940;2022-07-22T07:24:32;35.81;25.27
70336;SHT31;57756;47.408;18.940;2022-07-22T07:26:58;35.91;25.72
70336;SHT31;57756;47.408;18.940;2022-07-22T07:29:23;36.16;25.54
70336;SHT31;57756;47.408;18.940;2022-07-22T07:31:49;35.87;25.51
70336;SHT31;57756;47.408;18.940;2022-07-22T07:34:15;36.37;27.07
70336;SHT31;57756;47.408;18.940;2022-07-22T07:36:40;35.70;24.94
70336;SHT31;57756;47.408;18.940;2022-07-22T07:39:07;35.81;25.55
70336;SHT31;57756;47.408;18.940;2022-07-22T07:41:32;35.62;25.69
70336;SHT31;57756;47.408;18.940;2022-07-22T07:43:58;35.64;25.82
70336;SHT31;57756;47.408;18.940;2022-07-22T07:46:24;36.25;28.29
70336;SHT31;57756;47.408;18.940;2022-07-22T07:48:50;36.60;23.92
70336;SHT31;57756;47.408;18.940;2022-07-22T07:51:15;36.71;24.18
70336;SHT31;57756;47.408;18.940;2022-07-22T07:53:41;36.57;24.34
70336;SHT31;57756;47.408;18.940;2022-07-22T07:56:07;36.92;23.24
70336;SHT31;57756;47.408;18.940;2022-07-22T07:58:32;36.44;23.42
70336;SHT31;57756;47.408;18.940;2022-07-22T08:00:58;36.79;23.85
70336;SHT31;57756;47.408;18.940;2022-07-22T08:03:23;36.67;22.94
70336;SHT31;57756;47.408;18.940;2022-07-22T08:05:49;36.26;23.74
70336;SHT31;57756;47.408;18.940;2022-07-22T08:08:14;35.85;24.82
70336;SHT31;57756;47.408;18.940;2022-07-22T08:10:40;35.50;23.64
70336;SHT31;57756;47.408;18.940;2022-07-22T08:13:06;35.78;25.36
70336;SHT31;57756;47.408;18.940;2022-07-22T08:15:32;36.43;23.96
70336;SHT31;57756;47.408;18.940;2022-07-22T08:17:58;36.47;24.99
70336;SHT31;57756;47.408;18.940;2022-07-22T08:20:25;36.66;24.63
70336;SHT31;57756;47.408;18.940;2022-07-22T08:22:51;36.70;23.96
70336;SHT31;57756;47.408;18.940;2022-07-22T08:25:17;37.06;25.33
70336;SHT31;57756;47.408;18.940;2022-07-22T08:27:43;37.18;24.71
70336;SHT31;57756;47.408;18.940;2022-07-22T08:30:08;36.35;24.22
70336;SHT31;57756;47.408;18.940;2022-07-22T08:32:34;36.26;24.54
70336;SHT31;57756;47.408;18.940;2022-07-22T08:35:00;36.26;25.37
70336;SHT31;57756;47.408;18.940;2022-07-22T08:37:26;36.16;24.19
70336;SHT31;57756;47.408;18.940;2022-07-22T08:39:52;36.66;24.25
70336;SHT31;57756;47.408;18.940;2022-07-22T08:42:21;37.07;23.97
70336;SHT31;57756;47.408;18.940;2022-07-22T08:44:48;37.58;23.46
70336;SHT31;57756;47.408;18.940;2022-07-22T08:47:14;37.52;24.94
70336;SHT31;57756;47.408;18.940;2022-07-22T08:49:40;38.03;22.63
70336;SHT31;57756;47.408;18.940;2022-07-22T08:52:06;38.21;22.71
70336;SHT31;57756;47.408;18.940;2022-07-22T08:54:32;38.64;23.65
70336;SHT31;57756;47.408;18.940;2022-07-22T08:56:57;38.59;23.86
70336;SHT31;57756;47.408;18.940;2022-07-22T08:59:25;38.28;21.96
70336;SHT31;57756;47.408;18.940;2022-07-22T09:02:10;38.25;23.07
70336;SHT31;57756;47.408;18.940;2022-07-22T09:05:10;38.85;23.75
70336;SHT31;57756;47.408;18.940;2022-07-22T09:07:38;39.34;21.36
70336;SHT31;57756;47.408;18.940;2022-07-22T09:10:06;39.43;23.17
70336;SHT31;57756;47.408;18.940;2022-07-22T09:12:32;39.29;24.98
70336;SHT31;57756;47.408;18.940;2022-07-22T09:15:01;39.36;23.24
70336;SHT31;57756;47.408;18.940;2022-07-22T09:17:30;39.47;21.63
70336;SHT31;57756;47.408;18.940;2022-07-22T09:19:57;39.58;24.33
70336;SHT31;57756;47.408;18.940;2022-07-22T09:22:40;40.11;22.35
70336;SHT31;57756;47.408;18.940;2022-07-22T09:27:53;40.31;22.14
70336;SHT31;57756;47.408;18.940;2022-07-22T09:30:24;39.78;24.32
70336;SHT31;57756;47.408;18.940;2022-07-22T09:32:52;40.47;23.30
70336;SHT31;57756;47.408;18.940;2022-07-22T09:35:18;40.86;24.59
70336;SHT31;57756;47.408;18.940;2022-07-22T09:37:53;41.11;26.34
70336;SHT31;57756;47.408;18.940;2022-07-22T09:40:21;41.15;24.25
70336;SHT31;57756;47.408;18.940;2022-07-22T09:42:54;41.46;22.26
70336;SHT31;57756;47.408;18.940;2022-07-22T09:45:21;41.17;24.12
70336;SHT31;57756;47.408;18.940;2022-07-22T09:47:47;41.07;23.49
70336;SHT31;57756;47.408;18.940;2022-07-22T09:50:25;41.58;25.10
70336;SHT31;57756;47.408;18.940;2022-07-22T09:52:53;41.50;24.20
70336;SHT31;57756;47.408;18.940;2022-07-22T09:55:20;41.46;24.37
70336;SHT31;57756;47.408;18.940;2022-07-22T09:57:47;42.03;25.37
70336;SHT31;57756;47.408;18.940;2022-07-22T10:00:15;42.35;24.38
70336;SHT31;57756;47.408;18.940;2022-07-22T10:02:46;42.00;23.98
70336;SHT31;57756;47.408;18.940;2022-07-22T10:05:14;42.41;23.93
70336;SHT31;57756;47.408;18.940;2022-07-22T10:07:43;42.65;24.05
70336;SHT31;57756;47.408;18.940;2022-07-22T10:10:12;42.05;23.25
70336;SHT31;57756;47.408;18.940;2022-07-22T10:12:39;42.05;24.08
70336;SHT31;57756;47.408;18.940;2022-07-22T10:15:06;42.24;22.98
70336;SHT31;57756;47.408;18.940;2022-07-22T10:17:37;41.93;23.92
70336;SHT31;57756;47.408;18.940;2022-07-22T10:20:05;42.08;23.58
70336;SHT31;57756;47.408;18.940;2022-07-22T10:25:11;42.92;23.71
70336;SHT31;57756;47.408;18.940;2022-07-22T10:30:10;43.38;24.26
70336;SHT31;57756;47.408;18.940;2022-07-22T10:32:36;43.60;27.66
70336;SHT31;57756;47.408;18.940;2022-07-22T10:40:17;43.47;23.36
70336;SHT31;57756;47.408;18.940;2022-07-22T10:45:34;43.45;23.24
70336;SHT31;57756;47.408;18.940;2022-07-22T10:48:02;43.26;24.19
70336;SHT31;57756;47.408;18.940;2022-07-22T10:53:14;43.26;23.80
70336;SHT31;57756;47.408;18.940;2022-07-22T11:01:34;42.54;25.35
70336;SHT31;57756;47.408;18.940;2022-07-22T11:04:10;42.69;25.07
70336;SHT31;57756;47.408;18.940;2022-07-22T11:06:36;43.17;25.74
70336;SHT31;57756;47.408;18.940;2022-07-22T11:09:12;43.75;25.48
70336;SHT31;57756;47.408;18.940;2022-07-22T11:14:23;43.33;25.49
70336;SHT31;57756;47.408;18.940;2022-07-22T11:16:54;43.78;24.89
70336;SHT31;57756;47.408;18.940;2022-07-22T11:19:31;43.47;24.11
70336;SHT31;57756;47.408;18.940;2022-07-22T11:22:08;43.51;24.23
70336;SHT31;57756;47.408;18.940;2022-07-22T11:24:34;43.33;23.50
70336;SHT31;57756;47.408;18.940;2022-07-22T11:27:00;43.43;25.64
70336;SHT31;57756;47.408;18.940;2022-07-22T11:29:38;43.45;24.06
70336;SHT31;57756;47.408;18.940;2022-07-22T11:32:07;43.43;24.75
70336;SHT31;57756;47.408;18.940;2022-07-22T11:34:36;43.31;24.80
70336;SHT31;57756;47.408;18.940;2022-07-22T11:37:02;43.92;25.27
70336;SHT31;57756;47.408;18.940;2022-07-22T11:39:29;44.30;25.14
70336;SHT31;57756;47.408;18.940;2022-07-22T11:41:57;43.72;24.44
70336;SHT31;57756;47.408;18.940;2022-07-22T11:44:25;43.55;24.50
70336;SHT31;57756;47.408;18.940;2022-07-22T11:46:51;44.05;25.69
70336;SHT31;57756;47.408;18.940;2022-07-22T11:49:19;44.57;26.70
70336;SHT31;57756;47.408;18.940;2022-07-22T11:51:46;44.20;23.38
70336;SHT31;57756;47.408;18.940;2022-07-22T11:54:12;44.16;25.12
70336;SHT31;57756;47.408;18.940;2022-07-22T11:56:38;44.26;22.72
70336;SHT31;57756;47.408;18.940;2022-07-22T11:59:04;44.26;22.97
70336;SHT31;57756;47.408;18.940;2022-07-22T12:01:32;43.57;24.53
70336;SHT31;57756;47.408;18.940;2022-07-22T12:04:07;43.61;25.72
70336;SHT31;57756;47.408;18.940;2022-07-22T12:06:34;43.60;24.89
70336;SHT31;57756;47.408;18.940;2022-07-22T12:11:35;43.84;23.48
70336;SHT31;57756;47.408;18.940;2022-07-22T12:14:13;43.34;23.44
70336;SHT31;57756;47.408;18.940;2022-07-22T12:16:39;42.99;24.19
70336;SHT31;57756;47.408;18.940;2022-07-22T12:19:07;42.84;24.05
70336;SHT31;57756;47.408;18.940;2022-07-22T12:21:35;42.87;25.94
70336;SHT31;57756;47.408;18.940;2022-07-22T12:26:47;43.33;24.38
70336;SHT31;57756;47.408;18.940;2022-07-22T12:29:25;43.21;26.18
70336;SHT31;57756;47.408;18.940;2022-07-22T12:32:03;43.21;25.75
70336;SHT31;57756;47.408;18.940;2022-07-22T12:34:34;42.80;24.19
70336;SHT31;57756;47.408;18.940;2022-07-22T12:37:12;42.84;24.36
70336;SHT31;57756;47.408;18.940;2022-07-22T12:39:38;42.54;25.05
70336;SHT31;57756;47.408;18.940;2022-07-22T12:42:15;42.79;24.40
70336;SHT31;57756;47.408;18.940;2022-07-22T12:44:50;42.48;25.49
70336;SHT31;57756;47.408;18.940;2022-07-22T12:47:16;42.56;26.29
70336;SHT31;57756;47.408;18.940;2022-07-22T12:49:41;42.31;24.23
70336;SHT31;57756;47.408;18.940;2022-07-22T12:52:09;42.47;24.92
70336;SHT31;57756;47.408;18.940;2022-07-22T12:54:36;41.59;24.81
70336;SHT31;57756;47.408;18.940;2022-07-22T12:57:03;41.93;27.10
70336;SHT31;57756;47.408;18.940;2022-07-22T12:59:28;42.14;24.97
70336;SHT31;57756;47.408;18.940;2022-07-22T13:01:54;42.19;24.55
70336;SHT31;57756;47.408;18.940;2022-07-22T13:04:19;42.12;25.63
70336;SHT31;57756;47.408;18.940;2022-07-22T13:06:45;41.86;25.12
70336;SHT31;57756;47.408;18.940;2022-07-22T13:09:10;42.00;24.44
70336;SHT31;57756;47.408;18.940;2022-07-22T13:11:36;42.13;25.44
70336;SHT31;57756;47.408;18.940;2022-07-22T13:14:05;41.64;25.21
70336;SHT31;57756;47.408;18.940;2022-07-22T13:16:32;41.93;24.69
70336;SHT31;57756;47.408;18.940;2022-07-22T13:18:57;41.98;24.94
70336;SHT31;57756;47.408;18.940;2022-07-22T13:21:23;41.94;23.76
70336;SHT31;57756;47.408;18.940;2022-07-22T13:23:49;41.58;24.46
70336;SHT31;57756;47.408;18.940;2022-07-22T13:26:14;41.70;24.42
70336;SHT31;57756;47.408;18.940;2022-07-22T13:28:40;41.56;25.37
70336;SHT31;57756;47.408;18.940;2022-07-22T13:31:05;41.14;25.33
70336;SHT31;57756;47.408;18.940;2022-07-22T13:33:31;40.87;24.90
70336;SHT31;57756;47.408;18.940;2022-07-22T13:35:56;40.39;25.41
70336;SHT31;57756;47.408;18.940;2022-07-22T13:38:22;40.47;26.89
70336;SHT31;57756;47.408;18.940;2022-07-22T13:40:47;40.39;27.79
70336;SHT31;57756;47.408;18.940;2022-07-22T13:43:21;40.29;25.69
70336;SHT31;57756;47.408;18.940;2022-07-22T13:45:48;40.08;26.27
70336;SHT31;57756;47.408;18.940;2022-07-22T13:48:14;39.95;27.50
70336;SHT31;57756;47.408;18.940;2022-07-22T13:50:39;39.91;25.79
70336;SHT31;57756;47.408;18.940;2022-07-22T13:53:05;39.99;26.43
70336;SHT31;57756;47.408;18.940;2022-07-22T13:55:30;39.84;27.11
70336;SHT31;57756;47.408;18.940;2022-07-22T13:57:56;39.65;25.70
70336;SHT31;57756;47.408;18.940;2022-07-22T14:00:23;39.46;26.38
70336;SHT31;57756;47.408;18.940;2022-07-22T14:02:49;39.53;26.47
70336;SHT31;57756;47.408;18.940;2022-07-22T14:05:15;39.29;27.48
70336;SHT31;57756;47.408;18.940;2022-07-22T14:07:40;39.36;27.08
70336;SHT31;57756;47.408;18.940;2022-07-22T14:10:06;39.44;27.94
70336;SHT31;57756;47.408;18.940;2022-07-22T14:12:32;39.40;28.01
70336;SHT31;57756;47.408;18.940;2022-07-22T14:14:58;39.40;26.68
70336;SHT31;57756;47.408;18.940;2022-07-22T14:17:23;39.26;25.54
70336;SHT31;57756;47.408;18.940;2022-07-22T14:19:49;39.14;26.26
70336;SHT31;57756;47.408;18.940;2022-07-22T14:22:14;38.98;27.25
70336;SHT31;57756;47.408;18.940;2022-07-22T14:24:40;39.02;26.68
70336;SHT31;57756;47.408;18.940;2022-07-22T14:27:05;38.82;26.89
70336;SHT31;57756;47.408;18.940;2022-07-22T14:29:31;38.78;28.00
70336;SHT31;57756;47.408;18.940;2022-07-22T14:31:56;38.78;26.75
70336;SHT31;57756;47.408;18.940;2022-07-22T14:34:22;38.83;25.58
70336;SHT31;57756;47.408;18.940;2022-07-22T14:36:48;38.91;26.77
70336;SHT31;57756;47.408;18.940;2022-07-22T14:39:13;39.12;25.59
70336;SHT31;57756;47.408;18.940;2022-07-22T14:41:39;38.52;26.61
70336;SHT31;57756;47.408;18.940;2022-07-22T14:44:04;38.38;29.32
70336;SHT31;57756;47.408;18.940;2022-07-22T14:46:30;38.28;29.80
70336;SHT31;57756;47.408;18.940;2022-07-22T14:48:55;38.16;27.15
70336;SHT31;57756;47.408;18.940;2022-07-22T14:51:21;38.13;28.30
70336;SHT31;57756;47.408;18.940;2022-07-22T14:53:48;38.09;28.42
70336;SHT31;57756;47.408;18.940;2022-07-22T14:56:13;37.90;28.03
70336;SHT31;57756;47.408;18.940;2022-07-22T14:58:39;37.86;28.28
70336;SHT31;57756;47.408;18.940;2022-07-22T15:01:04;38.10;27.25
70336;SHT31;57756;47.408;18.940;2022-07-22T15:03:30;37.94;26.57
70336;SHT31;57756;47.408;18.940;2022-07-22T15:05:55;37.68;28.38
70336;SHT31;57756;47.408;18.940;2022-07-22T15:08:21;37.68;27.92
70336;SHT31;57756;47.408;18.940;2022-07-22T15:10:47;37.61;28.14
70336;SHT31;57756;47.408;18.940;2022-07-22T15:13:13;37.61;27.78
70336;SHT31;57756;47.408;18.940;2022-07-22T15:15:38;37.41;28.09
70336;SHT31;57756;47.408;18.940;2022-07-22T15:18:04;37.38;28.15
70336;SHT31;57756;47.408;18.940;2022-07-22T15:20:29;37.34;27.96
70336;SHT31;57756;47.408;18.940;2022-07-22T15:22:55;37.35;27.94
70336;SHT31;57756;47.408;18.940;2022-07-22T15:25:21;37.34;28.35
70336;SHT31;57756;47.408;18.940;2022-07-22T15:27:52;37.24;27.57
70336;SHT31;57756;47.408;18.940;2022-07-22T15:30:18;37.24;27.40
70336;SHT31;57756;47.408;18.940;2022-07-22T15:32:45;37.25;28.92
70336;SHT31;57756;47.408;18.940;2022-07-22T15:35:10;37.17;27.78
70336;SHT31;57756;47.408;18.940;2022-07-22T15:37:36;37.10;29.05
70336;SHT31;57756;47.408;18.940;2022-07-22T15:40:05;37.01;28.64
70336;SHT31;57756;47.408;18.940;2022-07-22T15:42:30;36.92;28.18
70336;SHT31;57756;47.408;18.940;2022-07-22T15:44:56;36.76;28.35